Time;durP1;ratioP1;P1;durP2;ratioP2;P2;SDS_P1;SDS_P2;PMS_P1;PMS_P2;Temp;Humidity;BMP_temperature;BMP_pressure;BME280_temperature;BME280_humidity;BME280_pressure;Samples;Min_cycle;Max_cycle;Signal;HPM_P1;HPM_P2
2021/11/15 00:02:09;;;;;;;100.15;43.88;;;;;;;10.19;78.78;100623.63;4993577;28;20065;-67
2021/11/15 00:04:34;;;;;;;101.10;43.08;;;;;;;10.17;78.22;100628.22;4990107;28;20328;-69
2021/11/15 00:07:01;;;;;;;95.53;42.13;;;;;;;10.09;78.77;100630.72;4998829;28;20043;-69
2021/11/15 00:09:27;;;;;;;95.30;43.08;;;;;;;10.02;78.88;100631.41;4987695;28;20138;-69
2021/11/15 00:11:53;;;;;;;101.28;43.40;;;;;;;10.04;79.25;100632.94;4990922;28;20050;-69
2021/11/15 00:14:19;;;;;;;98.45;44.08;;;;;;;10.04;79.55;100632.13;4994256;28;20041;-66
2021/11/15 00:16:45;;;;;;;95.22;43.75;;;;;;;10.04;79.35;100627.66;4993621;28;20030;-67
2021/11/15 00:19:10;;;;;;;96.05;41.50;;;;;;;10.10;79.27;100628.94;4994607;28;20212;-67
2021/11/15 00:21:36;;;;;;;95.90;41.78;;;;;;;10.06;79.30;100633.66;4997758;28;20035;-66
2021/11/15 00:24:01;;;;;;;125.53;46.80;;;;;;;10.11;78.80;100631.44;4991814;28;20046;-66
2021/11/15 00:26:27;;;;;;;135.13;46.92;;;;;;;10.19;78.95;100638.69;4996169;28;20088;-69
2021/11/15 00:28:54;;;;;;;114.97;46.05;;;;;;;10.11;78.92;100633.25;4989509;28;20042;-66
2021/11/15 00:31:22;;;;;;;91.82;42.47;;;;;;;10.05;78.85;100634.63;4996467;28;20045;-69
2021/11/15 00:33:47;;;;;;;85.18;40.65;;;;;;;9.95;78.92;100632.94;4992379;28;20082;-66
2021/11/15 00:36:13;;;;;;;92.03;41.30;;;;;;;9.92;79.34;100640.16;4992194;28;20034;-69
2021/11/15 00:38:38;;;;;;;112.13;44.78;;;;;;;9.74;80.46;100639.16;4993787;28;20049;-69
2021/11/15 00:41:04;;;;;;;113.00;46.17;;;;;;;9.79;80.93;100638.75;4990731;28;20042;-69
2021/11/15 00:43:29;;;;;;;95.03;42.42;;;;;;;9.87;79.56;100638.91;4995406;28;20261;-66
2021/11/15 00:45:55;;;;;;;101.25;44.55;;;;;;;9.48;80.41;100567.41;4992010;28;20034;-66
2021/11/15 00:48:21;;;;;;;104.15;45.47;;;;;;;9.86;80.04;100624.00;4996336;28;20049;-68
2021/11/15 00:50:46;;;;;;;93.47;42.83;;;;;;;9.77;80.57;100632.75;4992048;28;20062;-66
2021/11/15 00:53:11;;;;;;;101.88;45.17;;;;;;;9.97;79.05;100628.34;4994631;28;20243;-69
2021/11/15 00:55:37;;;;;;;101.53;44.13;;;;;;;9.91;79.19;100635.03;4986436;28;20026;-67
2021/11/15 00:58:03;;;;;;;98.60;46.40;;;;;;;9.93;79.46;100631.25;4995504;28;20023;-69
2021/11/15 01:00:30;;;;;;;100.95;46.15;;;;;;;9.96;79.20;100624.88;4988067;28;20034;-67
2021/11/15 01:02:58;;;;;;;95.88;45.67;;;;;;;9.91;78.74;100627.09;4990836;28;20034;-69
2021/11/15 01:05:27;;;;;;;101.80;46.67;;;;;;;9.87;79.03;100621.22;4992138;28;20034;-69
2021/11/15 01:07:53;;;;;;;96.47;44.85;;;;;;;9.71;79.68;100618.25;4994471;28;20055;-66
2021/11/15 01:10:20;;;;;;;100.53;43.63;;;;;;;9.70;79.69;100616.59;4991326;28;20138;-69
2021/11/15 01:12:46;;;;;;;96.00;43.95;;;;;;;9.74;78.83;100618.00;4993660;28;20042;-67
2021/11/15 01:15:16;;;;;;;94.72;44.70;;;;;;;9.74;77.81;100618.00;4990579;28;20328;-69
2021/11/15 01:17:42;;;;;;;92.88;41.35;;;;;;;9.64;78.38;100603.91;4993286;28;20342;-69
2021/11/15 01:20:10;;;;;;;90.95;41.83;;;;;;;9.62;78.19;100616.44;4996877;28;20114;-67
2021/11/15 01:22:36;;;;;;;98.15;44.20;;;;;;;9.56;78.57;100620.44;4992488;28;20081;-69
2021/11/15 01:25:02;;;;;;;95.65;44.38;;;;;;;9.62;77.81;100615.59;4992985;28;20042;-66
2021/11/15 01:27:27;;;;;;;94.50;45.20;;;;;;;9.64;77.63;100621.59;4988956;28;20098;-69
2021/11/15 01:29:53;;;;;;;90.13;41.78;;;;;;;9.60;77.17;100616.56;4989811;28;20042;-69
2021/11/15 01:32:18;;;;;;;94.57;44.03;;;;;;;9.57;77.30;100616.00;4991737;28;20106;-68
2021/11/15 01:34:44;;;;;;;88.45;39.22;;;;;;;9.44;77.08;100610.09;4990364;28;20075;-67
2021/11/15 01:37:09;;;;;;;84.65;38.28;;;;;;;9.43;77.46;100608.44;4991348;28;20042;-66
2021/11/15 01:39:35;;;;;;;87.00;40.95;;;;;;;9.45;77.83;100615.25;4989265;28;20069;-70
2021/11/15 01:42:00;;;;;;;78.60;37.55;;;;;;;9.47;77.74;100621.25;4992732;28;20070;-68
2021/11/15 01:44:26;;;;;;;83.72;40.30;;;;;;;9.41;78.33;100623.59;4993648;28;20041;-68
2021/11/15 01:46:51;;;;;;;93.65;40.78;;;;;;;9.31;79.55;100623.53;4997835;28;20042;-66
2021/11/15 01:49:17;;;;;;;85.75;39.50;;;;;;;9.33;79.26;100623.38;4993503;28;20086;-65
2021/11/15 01:51:44;;;;;;;86.45;39.35;;;;;;;9.37;79.41;100623.03;4990201;28;20042;-69
2021/11/15 01:54:09;;;;;;;89.03;40.33;;;;;;;9.45;79.18;100625.00;4987993;28;20038;-66
2021/11/15 01:56:35;;;;;;;78.25;36.20;;;;;;;9.42;78.50;100614.69;4991238;28;20129;-66
2021/11/15 01:59:02;;;;;;;82.15;39.00;;;;;;;9.38;78.59;100623.84;4991333;28;20045;-66
2021/11/15 02:01:29;;;;;;;87.50;39.63;;;;;;;9.41;78.20;100619.16;4995861;28;20026;-70
2021/11/15 02:03:54;;;;;;;90.50;41.53;;;;;;;9.37;78.92;100617.75;4991892;28;20046;-66
2021/11/15 02:06:20;;;;;;;86.45;39.13;;;;;;;9.38;78.82;100626.50;4987203;28;20078;-66
2021/11/15 02:08:46;;;;;;;84.10;40.35;;;;;;;9.35;79.04;100624.94;4987469;28;20038;-66
2021/11/15 02:11:11;;;;;;;83.70;39.65;;;;;;;9.33;78.85;100624.22;4993860;28;20034;-66
2021/11/15 02:13:37;;;;;;;97.93;45.72;;;;;;;9.25;79.55;100616.13;4992467;28;20332;-68
2021/11/15 02:16:03;;;;;;;88.93;43.08;;;;;;;9.28;78.88;100621.16;4991590;28;20045;-68
2021/11/15 02:18:28;;;;;;;91.70;40.53;;;;;;;9.23;79.31;100624.19;4985412;28;20432;-70
2021/11/15 02:20:59;;;;;;;90.53;42.40;;;;;;;9.34;78.77;100625.06;4992297;28;20076;-66
2021/11/15 02:23:28;;;;;;;92.07;39.95;;;;;;;9.37;77.69;100625.66;4990672;28;20026;-69
2021/11/15 02:25:55;;;;;;;91.88;40.97;;;;;;;9.43;77.12;100625.13;4995280;28;20138;-66
2021/11/15 02:28:31;;;;;;;85.38;40.10;;;;;;;9.44;77.62;100615.41;4990286;28;20030;-66
2021/11/15 02:30:58;;;;;;;84.97;38.33;;;;;;;9.31;77.57;100618.25;4997412;28;20251;-68
2021/11/15 02:33:25;;;;;;;83.32;37.85;;;;;;;9.27;78.04;100616.81;4992777;28;20058;-68
2021/11/15 02:35:51;;;;;;;80.80;37.92;;;;;;;9.23;78.32;100623.34;4992178;28;20097;-66
2021/11/15 02:38:17;;;;;;;81.00;37.80;;;;;;;9.25;78.18;100619.59;4993908;28;20057;-66
2021/11/15 02:40:42;;;;;;;76.63;36.63;;;;;;;9.30;77.13;100616.56;4995157;28;20374;-69
2021/11/15 02:43:08;;;;;;;78.35;36.17;;;;;;;9.21;77.69;100607.63;4987247;28;20081;-66
2021/11/15 02:45:34;;;;;;;80.38;37.28;;;;;;;9.27;77.62;100619.47;4996343;28;20034;-68
2021/11/15 02:47:59;;;;;;;79.40;36.17;;;;;;;9.29;77.13;100613.09;4986786;28;20035;-67
2021/11/15 02:50:27;;;;;;;72.60;35.35;;;;;;;9.31;76.75;100623.53;4991945;28;20878;-69
2021/11/15 02:53:00;;;;;;;74.18;36.05;;;;;;;9.27;77.18;100615.03;4992412;28;20123;-67
2021/11/15 02:55:27;;;;;;;74.95;36.90;;;;;;;9.24;77.28;100614.44;4992903;28;20027;-69
2021/11/15 02:57:55;;;;;;;73.53;36.65;;;;;;;9.25;77.54;100624.88;4990017;28;20027;-66
2021/11/15 03:00:29;;;;;;;80.40;38.22;;;;;;;9.26;77.51;100628.38;4994339;28;20355;-67
2021/11/15 03:02:55;;;;;;;;;;;;;;;9.35;77.05;100630.22;4988863;28;20044;-68
2021/11/15 03:05:30;;;;;;;80.38;35.30;;;;;;;9.34;76.73;100625.91;4993312;28;19922;-68
2021/11/15 03:07:57;;;;;;;81.70;36.15;;;;;;;9.29;77.24;100622.81;4990115;28;20054;-69
2021/11/15 03:10:23;;;;;;;77.43;36.80;;;;;;;9.30;77.14;100632.41;4985905;28;20039;-69
2021/11/15 03:12:49;;;;;;;74.80;37.67;;;;;;;9.34;76.91;100636.47;4991117;28;20042;-67
2021/11/15 03:15:27;;;;;;;82.30;36.20;;;;;;;9.32;77.15;100627.00;4991705;28;20106;-67
2021/11/15 03:18:01;;;;;;;74.65;37.08;;;;;;;9.31;76.72;100633.25;4988749;28;20039;-68
2021/11/15 03:20:33;;;;;;;91.35;39.58;;;;;;;9.31;76.48;100627.97;4988611;28;20058;-68
2021/11/15 03:22:59;;;;;;;73.45;35.30;;;;;;;9.25;76.63;100631.97;4991408;28;20085;-67
2021/11/15 03:25:27;;;;;;;79.43;36.30;;;;;;;9.32;76.75;100641.06;4990074;28;20340;-69
2021/11/15 03:27:53;;;;;;;79.90;36.10;;;;;;;9.27;76.61;100630.88;4993067;28;20332;-70
2021/11/15 03:30:20;;;;;;;79.43;36.55;;;;;;;9.32;77.40;100642.84;4992851;28;20145;-67
2021/11/15 03:32:46;;;;;;;77.22;37.58;;;;;;;9.30;77.38;100645.63;4990610;28;20328;-68
2021/11/15 03:35:14;;;;;;;70.47;34.50;;;;;;;9.34;77.09;100638.28;4993891;28;20023;-68
2021/11/15 03:37:40;;;;;;;73.60;35.92;;;;;;;9.35;76.86;100642.59;4984679;28;20031;-69
2021/11/15 03:40:10;;;;;;;71.90;35.15;;;;;;;9.32;77.46;100640.22;4990979;28;20022;-68
2021/11/15 03:42:37;;;;;;;73.57;34.60;;;;;;;9.19;77.58;100632.50;4991095;28;20065;-66
2021/11/15 03:45:03;;;;;;;75.50;35.92;;;;;;;9.18;78.00;100628.19;4990111;28;20046;-67
2021/11/15 03:47:29;;;;;;;70.13;33.95;;;;;;;9.15;78.24;100641.66;4990620;28;20034;-68
2021/11/15 03:49:56;;;;;;;79.18;36.72;;;;;;;8.93;79.53;100642.66;4997344;28;20041;-69
2021/11/15 03:52:22;;;;;;;78.40;37.50;;;;;;;9.02;78.97;100635.75;4995474;28;20038;-66
2021/11/15 03:54:48;;;;;;;76.80;36.67;;;;;;;9.08;78.26;100638.72;4990805;28;20027;-66
2021/11/15 03:57:13;;;;;;;74.75;34.97;;;;;;;9.16;78.24;100638.06;4990968;28;20095;-66
2021/11/15 03:59:39;;;;;;;74.20;36.25;;;;;;;9.19;77.79;100641.28;4991490;28;20039;-66
2021/11/15 04:02:06;;;;;;;95.22;39.65;;;;;;;9.20;77.43;100644.75;4992624;28;20119;-69
2021/11/15 04:04:48;;;;;;;77.13;37.33;;;;;;;9.17;77.29;100648.50;4992806;28;20112;-69
2021/11/15 04:07:14;;;;;;;80.68;35.40;;;;;;;9.16;77.71;100645.97;4991638;28;20105;-68
2021/11/15 04:09:39;;;;;;;79.90;36.58;;;;;;;9.22;77.56;100653.38;4993627;28;20031;-66
2021/11/15 04:12:05;;;;;;;74.60;35.88;;;;;;;9.25;77.79;100653.97;4994094;28;20053;-68
2021/11/15 04:14:31;;;;;;;74.07;34.90;;;;;;;9.34;77.92;100651.50;4993229;28;20030;-68
2021/11/15 04:16:58;;;;;;;79.47;35.75;;;;;;;9.35;77.38;100648.72;4994217;28;20043;-66
2021/11/15 04:19:23;;;;;;;75.70;37.63;;;;;;;9.29;77.76;100654.53;4995511;28;20109;-69
2021/11/15 04:21:50;;;;;;;82.95;37.72;;;;;;;9.36;77.43;100649.56;4992769;28;20039;-67
2021/11/15 04:24:16;;;;;;;75.15;36.63;;;;;;;9.42;76.64;100644.59;4996204;28;20264;-66
2021/11/15 04:26:42;;;;;;;77.95;36.70;;;;;;;9.44;76.71;100652.41;4991322;28;20032;-66
2021/11/15 04:29:07;;;;;;;80.00;39.78;;;;;;;9.53;76.74;100646.31;4989719;28;20061;-66
2021/11/15 04:31:33;;;;;;;80.78;39.35;;;;;;;9.58;75.69;100652.88;4992058;28;20082;-67
2021/11/15 04:33:58;;;;;;;86.03;38.53;;;;;;;9.36;76.34;100647.75;4989399;28;20081;-66
2021/11/15 04:36:24;;;;;;;83.97;38.67;;;;;;;9.28;76.26;100637.00;4995478;28;20058;-68
2021/11/15 04:38:50;;;;;;;83.00;39.97;;;;;;;9.43;75.83;100651.56;4988644;28;20253;-66
2021/11/15 04:41:16;;;;;;;84.97;39.28;;;;;;;9.50;75.70;100651.88;4989613;28;20042;-66
2021/11/15 04:43:41;;;;;;;90.18;46.17;;;;;;;9.56;76.00;100659.28;4992047;28;20093;-66
2021/11/15 04:46:06;;;;;;;93.88;47.60;;;;;;;9.57;76.18;100653.00;4992673;28;20038;-66
2021/11/15 04:48:32;;;;;;;87.32;43.78;;;;;;;9.59;75.74;100657.19;4994071;28;20423;-66
2021/11/15 04:50:58;;;;;;;83.15;39.47;;;;;;;9.64;75.81;100648.88;4992717;28;20042;-69
2021/11/15 04:53:23;;;;;;;78.70;37.90;;;;;;;9.65;75.85;100655.00;4997378;28;20410;-69
2021/11/15 04:55:49;;;;;;;79.28;38.97;;;;;;;9.66;76.16;100654.84;4992018;28;20271;-69
2021/11/15 04:58:15;;;;;;;67.45;33.72;;;;;;;9.61;76.13;100665.00;4993022;28;20059;-69
2021/11/15 05:00:42;;;;;;;75.88;35.65;;;;;;;9.45;76.93;100649.63;4993957;28;20062;-69
2021/11/15 05:03:07;;;;;;;85.13;39.78;;;;;;;9.59;76.77;100666.94;4993234;28;20056;-66
2021/11/15 05:05:34;;;;;;;109.20;53.60;;;;;;;9.58;76.58;100678.47;4991811;28;20110;-66
2021/11/15 05:08:00;;;;;;;76.10;38.38;;;;;;;9.62;76.71;100681.69;4994460;28;20073;-68
2021/11/15 05:10:27;;;;;;;78.88;38.50;;;;;;;9.59;76.33;100686.28;4991248;28;20038;-67
2021/11/15 05:12:54;;;;;;;92.07;42.53;;;;;;;9.59;76.34;100690.72;4993467;28;20050;-69
2021/11/15 05:15:20;;;;;;;87.60;39.88;;;;;;;9.47;77.01;100691.78;4996000;28;20370;-66
2021/11/15 05:17:49;;;;;;;101.90;48.88;;;;;;;9.48;77.08;100702.25;4993093;28;20037;-66
2021/11/15 05:20:15;;;;;;;105.97;48.42;;;;;;;9.49;77.19;100697.78;4987356;28;20355;-66
2021/11/15 05:22:41;;;;;;;105.82;51.78;;;;;;;9.54;76.81;100703.50;4993926;28;20256;-69
2021/11/15 05:25:08;;;;;;;124.82;53.55;;;;;;;9.47;76.94;100703.22;4989742;28;20034;-66
2021/11/15 05:27:34;;;;;;;115.03;51.05;;;;;;;9.40;76.70;100709.97;4990759;28;20026;-69
2021/11/15 05:29:59;;;;;;;121.10;46.97;;;;;;;9.37;76.96;100718.19;4992408;28;20139;-66
2021/11/15 05:32:25;;;;;;;114.78;45.22;;;;;;;9.43;76.50;100724.75;4990051;28;20042;-66
2021/11/15 05:34:50;;;;;;;149.23;53.33;;;;;;;9.51;75.23;100719.63;4991366;28;20041;-66
2021/11/15 05:37:17;;;;;;;123.90;50.78;;;;;;;9.44;75.24;100711.41;4998454;28;20034;-66
2021/11/15 05:39:43;;;;;;;117.68;46.05;;;;;;;9.54;75.68;100716.72;4991304;28;20110;-69
2021/11/15 05:42:09;;;;;;;113.72;46.90;;;;;;;9.63;75.70;100728.31;4989321;28;20043;-66
2021/11/15 05:44:35;;;;;;;120.18;49.95;;;;;;;9.67;76.15;100725.28;4993759;28;20038;-68
2021/11/15 05:47:00;;;;;;;123.72;52.63;;;;;;;9.64;76.12;100737.94;4987920;28;20062;-66
2021/11/15 05:49:26;;;;;;;138.35;53.58;;;;;;;9.67;76.52;100742.97;4994444;28;20030;-69
2021/11/15 05:51:51;;;;;;;125.22;50.70;;;;;;;9.75;76.10;100729.91;4995636;28;20034;-69
2021/11/15 05:54:17;;;;;;;126.05;51.95;;;;;;;9.76;76.09;100734.22;4991203;28;20232;-69
2021/11/15 05:56:43;;;;;;;131.50;50.80;;;;;;;9.71;76.33;100729.34;4991081;28;20076;-69
2021/11/15 05:59:09;;;;;;;137.02;53.72;;;;;;;9.80;76.28;100754.16;4990708;28;20061;-69
2021/11/15 06:01:35;;;;;;;123.15;55.00;;;;;;;9.82;76.97;100754.88;4992281;28;20026;-67
2021/11/15 06:04:01;;;;;;;126.07;53.15;;;;;;;9.83;76.35;100746.78;4992149;28;20045;-69
2021/11/15 06:06:26;;;;;;;123.68;52.22;;;;;;;9.82;75.97;100739.00;4992771;28;20030;-68
2021/11/15 06:08:52;;;;;;;116.93;50.45;;;;;;;9.82;76.19;100744.28;4992414;28;20054;-68
2021/11/15 06:11:19;;;;;;;128.27;50.92;;;;;;;9.93;75.47;100752.13;4989411;28;20037;-66
2021/11/15 06:13:45;;;;;;;104.68;45.47;;;;;;;9.90;75.23;100747.94;4995739;28;20042;-67
2021/11/15 06:16:10;;;;;;;109.18;44.05;;;;;;;9.83;76.26;100752.09;4991525;28;20077;-72
2021/11/15 06:18:37;;;;;;;123.40;50.40;;;;;;;9.78;76.23;100748.16;4993947;28;20103;-68
2021/11/15 06:21:03;;;;;;;146.40;63.20;;;;;;;9.78;76.26;100748.16;4989103;28;20113;-68
2021/11/15 06:23:29;;;;;;;128.40;55.08;;;;;;;9.86;76.52;100759.75;4991322;28;20112;-68
2021/11/15 06:25:54;;;;;;;129.77;55.42;;;;;;;9.99;76.32;100770.13;4989439;28;20826;-71
2021/11/15 06:28:20;;;;;;;126.57;57.08;;;;;;;10.20;76.12;100778.03;4989298;28;20031;-71
2021/11/15 06:30:45;;;;;;;104.18;45.40;;;;;;;10.17;76.58;100773.81;4990586;28;20142;-69
2021/11/15 06:33:11;;;;;;;84.85;41.63;;;;;;;10.13;75.99;100772.41;4996728;28;20037;-70
2021/11/15 06:35:37;;;;;;;78.97;36.80;;;;;;;10.19;75.75;100777.16;4985260;28;20073;-71
2021/11/15 06:38:02;;;;;;;86.55;37.33;;;;;;;10.21;75.69;100777.03;4993942;28;20043;-68
2021/11/15 06:40:28;;;;;;;86.45;38.72;;;;;;;10.30;75.36;100772.75;4988649;28;20102;-68
2021/11/15 06:42:53;;;;;;;88.60;38.22;;;;;;;10.38;74.71;100784.34;4995557;28;20050;-68
2021/11/15 06:45:19;;;;;;;94.32;39.03;;;;;;;10.44;75.12;100791.78;4991298;28;20279;-70
2021/11/15 06:47:46;;;;;;;79.95;38.05;;;;;;;10.52;75.42;100781.34;4990312;28;20058;-68
2021/11/15 06:50:15;;;;;;;86.13;39.58;;;;;;;10.58;74.42;100782.59;4988931;28;20293;-69
2021/11/15 06:52:41;;;;;;;86.22;39.17;;;;;;;10.58;74.63;100779.97;4989205;28;20045;-68
2021/11/15 06:55:07;;;;;;;89.32;41.67;;;;;;;10.71;74.74;100793.78;4988489;28;20276;-71
2021/11/15 06:57:34;;;;;;;103.70;48.28;;;;;;;10.69;74.36;100777.19;4989217;28;20050;-68
2021/11/15 06:59:59;;;;;;;117.28;51.50;;;;;;;10.76;74.48;100788.06;4987323;28;20313;-71
2021/11/15 07:02:25;;;;;;;109.72;48.85;;;;;;;10.79;73.75;100788.63;4994272;28;20036;-68
2021/11/15 07:04:50;;;;;;;98.68;44.13;;;;;;;10.88;73.26;100792.25;4988314;28;20091;-68
2021/11/15 07:07:16;;;;;;;96.80;43.45;;;;;;;10.98;72.46;100792.25;4990129;28;20030;-71
2021/11/15 07:09:45;;;;;;;104.90;46.22;;;;;;;11.02;71.89;100791.84;4990030;28;20043;-71
2021/11/15 07:12:12;;;;;;;116.03;47.58;;;;;;;11.06;71.99;100790.59;4991584;28;20066;-71
2021/11/15 07:14:38;;;;;;;136.15;51.25;;;;;;;11.12;71.98;100786.53;4983143;28;20323;-71
2021/11/15 07:17:03;;;;;;;101.88;44.95;;;;;;;11.19;72.33;100795.59;4995806;28;20076;-68
2021/11/15 07:19:29;;;;;;;111.15;43.40;;;;;;;11.25;71.88;100799.50;4987648;28;20033;-68
2021/11/15 07:21:54;;;;;;;97.38;44.15;;;;;;;11.38;71.24;100800.91;4984911;28;20236;-72
2021/11/15 07:24:20;;;;;;;107.55;51.63;;;;;;;11.37;70.68;100799.22;4994765;28;20370;-69
2021/11/15 07:26:45;;;;;;;100.43;48.95;;;;;;;11.37;70.42;100801.88;4995173;28;20279;-69
2021/11/15 07:29:10;;;;;;;115.53;55.33;;;;;;;11.52;70.06;100803.13;4993990;28;20433;-69
2021/11/15 07:31:38;;;;;;;132.32;57.28;;;;;;;11.55;69.60;100796.72;4992170;28;20033;-69
2021/11/15 07:34:04;;;;;;;111.35;53.08;;;;;;;11.54;69.84;100796.84;4994044;28;20058;-69
2021/11/15 07:36:31;;;;;;;117.93;53.72;;;;;;;11.39;70.81;100801.72;4995109;28;20042;-68
2021/11/15 07:38:57;;;;;;;116.90;55.00;;;;;;;11.45;70.33;100802.03;4994609;28;20054;-68
2021/11/15 07:41:22;;;;;;;111.93;54.78;;;;;;;11.61;69.95;100801.44;4995579;28;20335;-68
2021/11/15 07:43:48;;;;;;;107.82;52.67;;;;;;;11.44;71.30;100805.66;4995146;28;20041;-71
2021/11/15 07:46:13;;;;;;;99.95;47.60;;;;;;;11.19;70.90;100800.91;4993971;28;20062;-68
2021/11/15 07:48:39;;;;;;;94.10;48.38;;;;;;;11.23;70.97;100802.31;5009671;28;20038;-71
2021/11/15 07:51:05;;;;;;;100.15;48.00;;;;;;;11.37;70.35;100809.00;4996900;28;20050;-68
2021/11/15 07:53:35;;;;;;;98.90;49.25;;;;;;;11.28;69.95;100805.38;4993544;28;20042;-71
2021/11/15 07:56:01;;;;;;;99.00;49.58;;;;;;;11.30;71.04;100802.56;5000324;28;20216;-68
2021/11/15 07:58:27;;;;;;;125.00;54.30;;;;;;;11.23;70.82;100791.69;5005015;28;20125;-68
2021/11/15 08:00:52;;;;;;;217.07;74.38;;;;;;;11.36;70.34;100799.34;5004775;28;20196;-68
2021/11/15 08:03:18;;;;;;;156.38;64.70;;;;;;;11.39;70.43;100793.78;5004414;28;20077;-71
2021/11/15 08:05:43;;;;;;;101.53;51.10;;;;;;;11.27;70.57;100787.78;5004842;28;20117;-71
2021/11/15 08:08:09;;;;;;;110.50;52.53;;;;;;;11.49;70.23;100795.47;5004537;28;20295;-71
2021/11/15 08:10:34;;;;;;;154.48;66.18;;;;;;;11.26;71.13;100798.53;5004219;28;20042;-69
2021/11/15 08:13:00;;;;;;;575.38;169.73;;;;;;;11.36;70.81;100807.31;5004319;28;20042;-69
2021/11/15 08:15:27;;;;;;;214.75;71.95;;;;;;;11.51;70.05;100800.63;5004140;28;20046;-70
2021/11/15 08:17:56;;;;;;;93.15;44.95;;;;;;;11.63;70.04;100804.78;5004424;28;20354;-69
2021/11/15 08:20:26;;;;;;;240.52;81.45;;;;;;;11.61;69.41;100800.59;5004101;28;20064;-68
2021/11/15 08:22:55;;;;;;;141.23;62.10;;;;;;;11.51;68.94;100808.59;5019548;28;20073;-71
2021/11/15 08:25:23;;;;;;;105.15;51.33;;;;;;;11.46;70.20;100809.00;5003207;28;20045;-71
2021/11/15 08:27:49;;;;;;;90.43;46.28;;;;;;;11.45;71.30;100809.16;5004395;28;20042;-69
2021/11/15 08:30:14;;;;;;;90.78;44.75;;;;;;;11.64;69.83;100810.94;5004060;28;20044;-69
2021/11/15 08:32:43;;;;;;;90.85;44.92;;;;;;;11.65;69.51;100813.44;5003897;28;20049;-71
2021/11/15 08:35:08;;;;;;;93.18;45.95;;;;;;;11.73;70.18;100816.22;5003085;28;20036;-69
2021/11/15 08:37:34;;;;;;;88.95;45.28;;;;;;;11.89;69.62;100813.00;5004066;28;20042;-71
2021/11/15 08:40:00;;;;;;;90.93;44.97;;;;;;;12.04;68.91;100808.88;5004021;28;20235;-72
2021/11/15 08:42:25;;;;;;;100.30;49.53;;;;;;;12.13;68.66;100809.84;5003844;28;20038;-71
2021/11/15 08:44:58;;;;;;;122.80;58.40;;;;;;;12.16;68.19;100817.50;5003790;28;20307;-71
2021/11/15 08:47:23;;;;;;;129.80;64.75;;;;;;;12.21;68.16;100809.94;5003650;28;20030;-71
2021/11/15 08:49:50;;;;;;;115.70;60.17;;;;;;;12.30;68.00;100816.19;5003744;28;20038;-68
2021/11/15 08:52:15;;;;;;;110.53;57.47;;;;;;;12.28;68.21;100816.34;5003732;28;20038;-69
2021/11/15 08:54:41;;;;;;;118.40;57.38;;;;;;;12.36;66.85;100815.59;5003513;28;20033;-71
2021/11/15 08:57:07;;;;;;;110.80;54.38;;;;;;;12.37;67.14;100814.63;5003553;28;20309;-69
2021/11/15 08:59:33;;;;;;;100.43;51.88;;;;;;;12.44;67.04;100818.34;5003548;28;20065;-67
2021/11/15 09:02:00;;;;;;;95.53;48.75;;;;;;;12.59;65.87;100808.94;4996847;28;20086;-69
2021/11/15 09:04:25;;;;;;;100.28;47.92;;;;;;;12.70;64.51;100803.41;4995780;28;20031;-66
2021/11/15 09:06:52;;;;;;;88.53;44.65;;;;;;;12.58;65.27;100801.94;4994034;28;20053;-66
2021/11/15 09:09:18;;;;;;;84.53;44.20;;;;;;;12.62;64.91;100792.69;4993302;28;20050;-69
2021/11/15 09:11:49;;;;;;;80.80;43.28;;;;;;;12.70;64.84;100800.75;4994422;28;20041;-67
2021/11/15 09:14:17;;;;;;;83.22;43.42;;;;;;;12.69;65.24;100799.06;4992138;28;20064;-69
2021/11/15 09:16:43;;;;;;;87.82;43.17;;;;;;;12.66;65.34;100796.72;4993025;28;20305;-67
2021/11/15 09:19:10;;;;;;;84.75;43.05;;;;;;;12.63;64.90;100791.69;4994647;28;20046;-66
2021/11/15 09:21:36;;;;;;;78.53;40.95;;;;;;;12.77;64.36;100788.53;4991941;28;20038;-69
2021/11/15 09:24:02;;;;;;;112.38;50.22;;;;;;;12.76;64.39;100788.69;4992508;28;20094;-66
2021/11/15 09:26:28;;;;;;;101.32;49.80;;;;;;;12.76;64.16;100792.16;4993994;28;20219;-70
2021/11/15 09:28:55;;;;;;;116.47;52.05;;;;;;;12.85;64.08;100784.28;4992284;28;20050;-66
2021/11/15 09:31:21;;;;;;;89.53;41.40;;;;;;;12.85;64.01;100784.28;4994537;28;20034;-66
2021/11/15 09:33:47;;;;;;;76.95;41.58;;;;;;;13.11;62.16;100778.03;4991567;28;20077;-70
2021/11/15 09:36:12;;;;;;;74.53;40.83;;;;;;;13.24;62.22;100788.31;4991806;28;20383;-69
2021/11/15 09:38:42;;;;;;;72.88;40.05;;;;;;;13.25;62.33;100782.00;4994402;28;20038;-70
2021/11/15 09:41:07;;;;;;;85.03;40.88;;;;;;;13.30;62.40;100782.38;4994411;28;20065;-66
2021/11/15 09:43:36;;;;;;;82.47;42.20;;;;;;;13.43;62.46;100787.31;4991528;28;20030;-66
2021/11/15 09:46:12;;;;;;;79.07;41.05;;;;;;;13.06;62.33;100785.66;4995097;28;20026;-69
2021/11/15 09:48:42;;;;;;;82.55;41.38;;;;;;;13.34;60.73;100782.91;4993610;28;20034;-68
2021/11/15 09:51:08;;;;;;;75.40;37.95;;;;;;;13.34;60.74;100780.25;4992051;28;20049;-66
2021/11/15 09:53:35;;;;;;;79.40;39.85;;;;;;;13.39;60.65;100777.97;4993683;28;20098;-66
2021/11/15 09:56:02;;;;;;;69.43;35.35;;;;;;;13.51;61.08;100776.72;4991641;28;20049;-68
2021/11/15 09:58:27;;;;;;;79.88;42.08;;;;;;;13.45;61.20;100782.66;4992773;28;20319;-66
2021/11/15 10:00:54;;;;;;;65.10;37.20;;;;;;;13.49;61.04;100784.03;4992804;28;20030;-66
2021/11/15 10:03:19;;;;;;;69.20;35.70;;;;;;;13.33;61.80;100792.72;4992821;28;20053;-66
2021/11/15 10:05:48;;;;;;;71.28;38.50;;;;;;;13.48;61.35;100792.16;4992212;28;20031;-66
2021/11/15 10:08:15;;;;;;;74.82;37.90;;;;;;;13.40;61.90;100793.78;4997800;28;20325;-69
2021/11/15 10:10:46;;;;;;;69.15;37.38;;;;;;;13.60;61.07;100788.28;5002214;28;20077;-67
2021/11/15 10:13:24;;;;;;;64.93;33.33;;;;;;;13.51;60.56;100787.34;5002088;28;20038;-69
2021/11/15 10:15:59;;;;;;;69.97;34.42;;;;;;;13.21;61.25;100780.66;5002035;28;20038;-68
2021/11/15 10:18:39;;;;;;;64.13;35.03;;;;;;;13.52;61.68;100775.72;5017447;28;20336;-71
2021/11/15 10:21:18;;;;;;;62.15;33.22;;;;;;;13.22;61.73;100781.47;5001963;28;20014;-71
2021/11/15 10:24:10;;;;;;;67.43;34.42;;;;;;;13.27;61.37;100784.50;5002204;28;20065;-71
2021/11/15 10:26:43;;;;;;;69.38;36.17;;;;;;;13.22;62.15;100786.81;4999863;28;20278;-71
2021/11/15 10:29:14;;;;;;;73.97;38.00;;;;;;;13.45;61.32;100785.31;5001884;28;20038;-71
2021/11/15 10:31:58;;;;;;;68.57;36.58;;;;;;;13.57;61.06;100783.28;5000778;28;20034;-71
2021/11/15 10:34:37;;;;;;;75.55;38.13;;;;;;;13.57;61.54;100783.28;5002071;28;20054;-71
2021/11/15 10:37:19;;;;;;;68.10;37.88;;;;;;;13.62;61.26;100783.63;5001848;28;20030;-71
2021/11/15 10:39:44;;;;;;;77.57;38.45;;;;;;;13.66;61.02;100787.66;5000685;28;20022;-72
2021/11/15 10:42:15;;;;;;;73.22;38.00;;;;;;;13.80;60.46;100788.91;5001860;28;20065;-72
2021/11/15 10:44:45;;;;;;;74.32;37.58;;;;;;;13.82;60.65;100787.75;5001569;28;20037;-68
2021/11/15 10:47:10;;;;;;;75.13;38.30;;;;;;;13.92;59.95;100793.81;5001787;28;20366;-68
2021/11/15 10:49:36;;;;;;;80.25;39.28;;;;;;;14.02;60.27;100791.03;5001763;28;20030;-71
2021/11/15 10:52:06;;;;;;;78.93;40.38;;;;;;;14.00;60.30;100801.00;5001352;28;20343;-71
2021/11/15 10:54:45;;;;;;;80.38;41.40;;;;;;;14.05;60.54;100791.53;5001674;28;20037;-71
2021/11/15 10:57:21;;;;;;;83.82;42.00;;;;;;;14.04;60.77;100800.53;5000737;28;20303;-68
2021/11/15 11:00:08;;;;;;;85.05;42.50;;;;;;;13.96;60.08;100797.00;5001596;28;20026;-71
2021/11/15 11:02:45;;;;;;;79.22;42.03;;;;;;;14.10;59.46;100787.56;5001488;28;20040;-71
2021/11/15 11:05:23;;;;;;;75.47;40.58;;;;;;;14.04;59.90;100786.38;5001876;28;20034;-69
2021/11/15 11:08:15;;;;;;;83.57;39.83;;;;;;;14.13;59.88;100787.25;5001422;28;20046;-72
2021/11/15 11:10:58;;;;;;;72.10;39.42;;;;;;;14.26;59.22;100783.13;5001690;28;20091;-71
2021/11/15 11:13:31;;;;;;;71.43;37.47;;;;;;;14.26;59.51;100782.31;5001504;28;20072;-71